NCAR-RAP Real-Time Weather Data

Output produced by METARs form (06 May 2021  15:03 UTC)
found at http://weather.rap.ucar.edu/surface/
 
KDDC 061452Z AUTO 03011KT 8SM CLR 11/08 A3037 RMK AO2 SLP281 T01110078 51024
KDDC 061352Z AUTO 03013KT 8SM CLR 09/07 A3037 RMK AO2 SLP279 T00940067
KDDC 061252Z AUTO 36010KT 9SM CLR 08/05 A3034 RMK AO2 SLP268 T00780050
KDDC 061152Z AUTO 33008KT 9SM CLR 06/04 A3029 RMK AO2 SLP255 70028 T00610039 10100 20061 53012
KDDC 061052Z AUTO 34007KT 8SM CLR 07/05 A3029 RMK AO2 SLP256 T00670050
KDDC 060952Z AUTO 31008KT 9SM CLR 09/07 A3026 RMK AO2 SLP236 T00890072
KDDC 060852Z AUTO 30008KT 8SM CLR 08/07 A3026 RMK AO2 SLP235 T00780067 53005
KDDC 060752Z AUTO 24009KT 10SM CLR 09/08 A3025 RMK AO2 SLP232 T00940078
KDDC 060652Z AUTO 23006KT 10SM CLR 09/07 A3024 RMK AO2 SLP231 T00940072
KDDC 060552Z AUTO 22007KT 10SM CLR 10/08 A3024 RMK AO2 SLP230 T01000078 10172 20100 402220061 51018
KDDC 060452Z AUTO 21009KT 10SM CLR 11/08 A3023 RMK AO2 SLP226 T01060078
KDDC 060352Z AUTO 19008KT 10SM CLR 11/08 A3021 RMK AO2 SLP221 T01060083
KDDC 060252Z AUTO 18007KT 10SM CLR 11/09 A3018 RMK AO2 SLP213 T01060089 53024
KDDC 060152Z AUTO 17005KT 10SM CLR 12/10 A3014 RMK AO2 SLP201 T01220100
KDDC 060052Z AUTO 11006KT 10SM CLR 15/12 A3011 RMK AO2 SLP190 T01500117